マレ の空港の天気 - METARとTAF

マレ国際空港 ( VRMM / MLE ) - モルディブ Hulhule Island, North Male Atoll
飛行場実況気象(Metar)
観測時間12/18 13:00 MVT (12/18 08:00 UTC)
風向・風速南東 3m/s
視程7000m
天気現象弱いしゅう雨
全天の4割程度の雲 雲底高度 520m
少しの雲 雲底高度 550m
全天の8割程度の雲 雲底高度 3050m
気温28℃
湿度84%
気圧1013hPa
METARVRMM 180800Z 13006KT 7000 -SHRA SCT017 FEW018CB BKN100 28/25 Q1013 CB N,SW,NW TEMPO 5000 -SHRA
過去の天気等 Google飛行場航空写真 Wunderground天気予報

過去48時間のMETAR

飛行場予報(TAF)
発表時間: 12/18 04:00 MVT (12/17 23:00 UTC)
予報対象時間: 18日5時 MVT ~ 19日11時 MVT
風向・風速東 5m/s
視程7,000m
天気現象弱い雨
全天の4割程度の雲 雲底高度 490m
全天を覆う雲 雲底高度 2,440m
18日5時 MVT ~ 18日11時 MVT に一時的に
風向・風速東 9m/s 瞬間風速 18m/s
視程2,000m
TAF VRMM 172300Z 1800/1906 09009KT 7000 -RA SCT016 OVC080
TEMPO 1800/1806 09018G35KT 2000 +TSRA/RA SCT015CB